sensor_id;sensor_type;location;lat;lon;timestamp;P1;durP1;ratioP1;P2;durP2;ratioP2
52015;SDS011;38032;53.326;6.472;2023-11-21T00:01:01;17.55;;;5.90;;
52015;SDS011;38032;53.326;6.472;2023-11-21T00:03:29;14.05;;;4.75;;
52015;SDS011;38032;53.326;6.472;2023-11-21T00:05:55;15.48;;;5.05;;
52015;SDS011;38032;53.326;6.472;2023-11-21T00:08:21;14.07;;;5.50;;
52015;SDS011;38032;53.326;6.472;2023-11-21T00:10:47;17.10;;;5.15;;
52015;SDS011;38032;53.326;6.472;2023-11-21T00:13:13;16.17;;;5.05;;
52015;SDS011;38032;53.326;6.472;2023-11-21T00:15:39;14.15;;;4.88;;
52015;SDS011;38032;53.326;6.472;2023-11-21T00:18:05;15.90;;;5.35;;
52015;SDS011;38032;53.326;6.472;2023-11-21T00:20:31;13.70;;;4.95;;
52015;SDS011;38032;53.326;6.472;2023-11-21T00:22:57;12.38;;;5.43;;
52015;SDS011;38032;53.326;6.472;2023-11-21T00:25:24;14.95;;;5.10;;
52015;SDS011;38032;53.326;6.472;2023-11-21T00:27:50;15.95;;;5.65;;
52015;SDS011;38032;53.326;6.472;2023-11-21T00:30:16;14.18;;;5.20;;
52015;SDS011;38032;53.326;6.472;2023-11-21T00:32:42;18.85;;;5.97;;
52015;SDS011;38032;53.326;6.472;2023-11-21T00:35:08;14.13;;;5.55;;
52015;SDS011;38032;53.326;6.472;2023-11-21T00:37:34;16.17;;;5.60;;
52015;SDS011;38032;53.326;6.472;2023-11-21T00:40:00;15.77;;;6.15;;
52015;SDS011;38032;53.326;6.472;2023-11-21T00:42:30;13.95;;;5.68;;
52015;SDS011;38032;53.326;6.472;2023-11-21T00:44:59;19.50;;;5.88;;
52015;SDS011;38032;53.326;6.472;2023-11-21T00:47:24;22.10;;;6.38;;
52015;SDS011;38032;53.326;6.472;2023-11-21T00:49:50;15.60;;;5.20;;
52015;SDS011;38032;53.326;6.472;2023-11-21T00:52:16;13.77;;;5.30;;
52015;SDS011;38032;53.326;6.472;2023-11-21T00:54:42;16.25;;;5.43;;
52015;SDS011;38032;53.326;6.472;2023-11-21T00:57:08;14.13;;;5.38;;
52015;SDS011;38032;53.326;6.472;2023-11-21T00:59:34;14.77;;;5.47;;
52015;SDS011;38032;53.326;6.472;2023-11-21T01:02:00;15.32;;;5.75;;
52015;SDS011;38032;53.326;6.472;2023-11-21T01:04:26;17.35;;;6.32;;
52015;SDS011;38032;53.326;6.472;2023-11-21T01:06:53;13.98;;;5.53;;
52015;SDS011;38032;53.326;6.472;2023-11-21T01:09:18;18.90;;;6.13;;
52015;SDS011;38032;53.326;6.472;2023-11-21T01:11:44;15.13;;;5.68;;
52015;SDS011;38032;53.326;6.472;2023-11-21T01:14:11;13.93;;;5.82;;
52015;SDS011;38032;53.326;6.472;2023-11-21T01:16:38;14.48;;;5.20;;
52015;SDS011;38032;53.326;6.472;2023-11-21T01:19:04;15.48;;;6.10;;
52015;SDS011;38032;53.326;6.472;2023-11-21T01:21:30;14.35;;;5.43;;
52015;SDS011;38032;53.326;6.472;2023-11-21T01:23:56;18.05;;;5.80;;
52015;SDS011;38032;53.326;6.472;2023-11-21T01:26:22;13.60;;;5.22;;
52015;SDS011;38032;53.326;6.472;2023-11-21T01:28:48;16.83;;;6.07;;
52015;SDS011;38032;53.326;6.472;2023-11-21T01:31:14;13.13;;;5.47;;
52015;SDS011;38032;53.326;6.472;2023-11-21T01:33:40;14.55;;;5.35;;
52015;SDS011;38032;53.326;6.472;2023-11-21T01:36:06;13.18;;;5.30;;
52015;SDS011;38032;53.326;6.472;2023-11-21T01:38:32;13.93;;;5.45;;
52015;SDS011;38032;53.326;6.472;2023-11-21T01:40:58;17.40;;;5.40;;
52015;SDS011;38032;53.326;6.472;2023-11-21T01:43:26;14.57;;;5.75;;
52015;SDS011;38032;53.326;6.472;2023-11-21T01:45:53;14.70;;;5.35;;
52015;SDS011;38032;53.326;6.472;2023-11-21T01:48:22;15.13;;;5.20;;
52015;SDS011;38032;53.326;6.472;2023-11-21T01:50:48;18.83;;;6.40;;
52015;SDS011;38032;53.326;6.472;2023-11-21T01:53:15;15.40;;;5.30;;
52015;SDS011;38032;53.326;6.472;2023-11-21T01:55:41;14.07;;;5.45;;
52015;SDS011;38032;53.326;6.472;2023-11-21T01:58:08;15.63;;;6.10;;
52015;SDS011;38032;53.326;6.472;2023-11-21T02:00:35;19.40;;;6.22;;
52015;SDS011;38032;53.326;6.472;2023-11-21T02:03:03;16.27;;;5.70;;
52015;SDS011;38032;53.326;6.472;2023-11-21T02:05:29;12.18;;;6.28;;
52015;SDS011;38032;53.326;6.472;2023-11-21T02:07:55;18.45;;;7.97;;
52015;SDS011;38032;53.326;6.472;2023-11-21T02:10:21;21.63;;;7.78;;
52015;SDS011;38032;53.326;6.472;2023-11-21T02:12:48;25.50;;;7.60;;
52015;SDS011;38032;53.326;6.472;2023-11-21T02:15:15;23.98;;;8.95;;
52015;SDS011;38032;53.326;6.472;2023-11-21T02:17:45;20.27;;;7.68;;
52015;SDS011;38032;53.326;6.472;2023-11-21T02:20:12;26.13;;;7.53;;
52015;SDS011;38032;53.326;6.472;2023-11-21T02:22:40;25.88;;;7.93;;
52015;SDS011;38032;53.326;6.472;2023-11-21T02:25:08;30.08;;;8.38;;
52015;SDS011;38032;53.326;6.472;2023-11-21T02:27:34;22.98;;;7.53;;
52015;SDS011;38032;53.326;6.472;2023-11-21T02:30:00;25.92;;;7.97;;
52015;SDS011;38032;53.326;6.472;2023-11-21T02:32:26;26.67;;;8.30;;
52015;SDS011;38032;53.326;6.472;2023-11-21T02:34:52;22.73;;;7.80;;
52015;SDS011;38032;53.326;6.472;2023-11-21T02:37:21;21.75;;;7.95;;
52015;SDS011;38032;53.326;6.472;2023-11-21T02:39:46;22.17;;;8.70;;
52015;SDS011;38032;53.326;6.472;2023-11-21T02:42:12;26.67;;;8.30;;
52015;SDS011;38032;53.326;6.472;2023-11-21T02:44:38;24.05;;;8.70;;
52015;SDS011;38032;53.326;6.472;2023-11-21T02:47:04;23.67;;;8.73;;
52015;SDS011;38032;53.326;6.472;2023-11-21T02:49:30;25.25;;;8.43;;
52015;SDS011;38032;53.326;6.472;2023-11-21T02:51:57;21.42;;;7.80;;
52015;SDS011;38032;53.326;6.472;2023-11-21T02:54:22;23.23;;;7.75;;
52015;SDS011;38032;53.326;6.472;2023-11-21T02:56:48;19.58;;;7.55;;
52015;SDS011;38032;53.326;6.472;2023-11-21T02:59:15;24.92;;;8.25;;
52015;SDS011;38032;53.326;6.472;2023-11-21T03:01:41;16.60;;;7.75;;
52015;SDS011;38032;53.326;6.472;2023-11-21T03:04:07;16.48;;;7.40;;
52015;SDS011;38032;53.326;6.472;2023-11-21T03:06:32;22.98;;;7.80;;
52015;SDS011;38032;53.326;6.472;2023-11-21T03:08:59;22.27;;;7.68;;
52015;SDS011;38032;53.326;6.472;2023-11-21T03:11:24;24.88;;;9.55;;
52015;SDS011;38032;53.326;6.472;2023-11-21T03:13:50;21.13;;;8.75;;
52015;SDS011;38032;53.326;6.472;2023-11-21T03:16:16;23.67;;;8.40;;
52015;SDS011;38032;53.326;6.472;2023-11-21T03:18:42;23.90;;;8.88;;
52015;SDS011;38032;53.326;6.472;2023-11-21T03:21:08;30.42;;;9.18;;
52015;SDS011;38032;53.326;6.472;2023-11-21T03:23:34;29.05;;;8.48;;
52015;SDS011;38032;53.326;6.472;2023-11-21T03:26:01;22.90;;;8.70;;
52015;SDS011;38032;53.326;6.472;2023-11-21T03:28:27;24.67;;;8.35;;
52015;SDS011;38032;53.326;6.472;2023-11-21T03:30:53;22.13;;;8.98;;
52015;SDS011;38032;53.326;6.472;2023-11-21T03:33:19;22.23;;;9.00;;
52015;SDS011;38032;53.326;6.472;2023-11-21T03:35:45;26.55;;;9.35;;
52015;SDS011;38032;53.326;6.472;2023-11-21T03:38:11;23.50;;;8.90;;
52015;SDS011;38032;53.326;6.472;2023-11-21T03:40:37;22.05;;;8.45;;
52015;SDS011;38032;53.326;6.472;2023-11-21T03:43:04;21.48;;;8.60;;
52015;SDS011;38032;53.326;6.472;2023-11-21T03:45:31;26.63;;;8.80;;
52015;SDS011;38032;53.326;6.472;2023-11-21T03:47:57;19.05;;;7.53;;
52015;SDS011;38032;53.326;6.472;2023-11-21T03:50:22;22.55;;;8.13;;
52015;SDS011;38032;53.326;6.472;2023-11-21T03:52:48;18.15;;;7.05;;
52015;SDS011;38032;53.326;6.472;2023-11-21T03:55:14;21.10;;;8.57;;
52015;SDS011;38032;53.326;6.472;2023-11-21T03:57:40;25.60;;;8.35;;
52015;SDS011;38032;53.326;6.472;2023-11-21T04:00:06;22.40;;;8.80;;
52015;SDS011;38032;53.326;6.472;2023-11-21T04:02:34;24.65;;;9.40;;
52015;SDS011;38032;53.326;6.472;2023-11-21T04:05:00;21.30;;;8.82;;
52015;SDS011;38032;53.326;6.472;2023-11-21T04:07:26;22.80;;;8.43;;
52015;SDS011;38032;53.326;6.472;2023-11-21T04:09:52;21.88;;;8.27;;
52015;SDS011;38032;53.326;6.472;2023-11-21T04:12:19;21.88;;;8.40;;
52015;SDS011;38032;53.326;6.472;2023-11-21T04:14:44;22.55;;;8.00;;
52015;SDS011;38032;53.326;6.472;2023-11-21T04:17:10;21.90;;;8.45;;
52015;SDS011;38032;53.326;6.472;2023-11-21T04:19:36;17.27;;;8.60;;
52015;SDS011;38032;53.326;6.472;2023-11-21T04:22:02;21.55;;;9.05;;
52015;SDS011;38032;53.326;6.472;2023-11-21T04:24:29;21.00;;;9.07;;
52015;SDS011;38032;53.326;6.472;2023-11-21T04:26:55;20.88;;;8.85;;
52015;SDS011;38032;53.326;6.472;2023-11-21T04:29:20;25.95;;;10.15;;
52015;SDS011;38032;53.326;6.472;2023-11-21T04:31:46;24.25;;;10.52;;
52015;SDS011;38032;53.326;6.472;2023-11-21T04:34:14;25.23;;;11.10;;
52015;SDS011;38032;53.326;6.472;2023-11-21T04:36:40;23.45;;;11.00;;
52015;SDS011;38032;53.326;6.472;2023-11-21T04:39:06;27.48;;;10.75;;
52015;SDS011;38032;53.326;6.472;2023-11-21T04:41:32;23.95;;;10.55;;
52015;SDS011;38032;53.326;6.472;2023-11-21T04:43:58;23.38;;;10.55;;
52015;SDS011;38032;53.326;6.472;2023-11-21T04:46:25;26.15;;;10.15;;
52015;SDS011;38032;53.326;6.472;2023-11-21T04:48:51;24.40;;;11.02;;
52015;SDS011;38032;53.326;6.472;2023-11-21T04:51:17;21.17;;;10.70;;
52015;SDS011;38032;53.326;6.472;2023-11-21T04:53:43;26.80;;;9.18;;
52015;SDS011;38032;53.326;6.472;2023-11-21T04:56:09;25.63;;;9.77;;
52015;SDS011;38032;53.326;6.472;2023-11-21T04:58:34;19.83;;;8.45;;
52015;SDS011;38032;53.326;6.472;2023-11-21T05:01:01;15.68;;;7.22;;
52015;SDS011;38032;53.326;6.472;2023-11-21T05:03:26;16.50;;;7.88;;
52015;SDS011;38032;53.326;6.472;2023-11-21T05:05:54;18.73;;;8.60;;
52015;SDS011;38032;53.326;6.472;2023-11-21T05:08:21;18.38;;;8.15;;
52015;SDS011;38032;53.326;6.472;2023-11-21T05:10:47;17.98;;;7.28;;
52015;SDS011;38032;53.326;6.472;2023-11-21T05:13:14;17.50;;;7.70;;
52015;SDS011;38032;53.326;6.472;2023-11-21T05:15:43;22.50;;;8.38;;
52015;SDS011;38032;53.326;6.472;2023-11-21T05:18:09;20.42;;;9.10;;
52015;SDS011;38032;53.326;6.472;2023-11-21T05:20:35;20.60;;;8.90;;
52015;SDS011;38032;53.326;6.472;2023-11-21T05:23:03;20.60;;;8.55;;
52015;SDS011;38032;53.326;6.472;2023-11-21T05:25:28;18.83;;;8.98;;
52015;SDS011;38032;53.326;6.472;2023-11-21T05:27:54;16.90;;;8.85;;
52015;SDS011;38032;53.326;6.472;2023-11-21T05:30:21;19.42;;;10.07;;
52015;SDS011;38032;53.326;6.472;2023-11-21T05:32:47;18.48;;;9.68;;
52015;SDS011;38032;53.326;6.472;2023-11-21T05:35:14;19.63;;;10.73;;
52015;SDS011;38032;53.326;6.472;2023-11-21T05:37:42;21.40;;;10.68;;
52015;SDS011;38032;53.326;6.472;2023-11-21T05:40:08;19.67;;;9.75;;
52015;SDS011;38032;53.326;6.472;2023-11-21T05:42:35;25.45;;;11.90;;
52015;SDS011;38032;53.326;6.472;2023-11-21T05:45:01;21.85;;;11.20;;
52015;SDS011;38032;53.326;6.472;2023-11-21T05:47:36;23.33;;;12.10;;
52015;SDS011;38032;53.326;6.472;2023-11-21T05:50:03;33.15;;;13.65;;
52015;SDS011;38032;53.326;6.472;2023-11-21T05:52:30;31.88;;;13.80;;
52015;SDS011;38032;53.326;6.472;2023-11-21T05:54:57;33.10;;;14.88;;
52015;SDS011;38032;53.326;6.472;2023-11-21T05:57:23;29.92;;;14.13;;
52015;SDS011;38032;53.326;6.472;2023-11-21T05:59:49;35.67;;;15.68;;
52015;SDS011;38032;53.326;6.472;2023-11-21T06:02:15;35.53;;;15.25;;
52015;SDS011;38032;53.326;6.472;2023-11-21T06:04:40;37.28;;;15.60;;
52015;SDS011;38032;53.326;6.472;2023-11-21T06:07:06;33.55;;;14.93;;
52015;SDS011;38032;53.326;6.472;2023-11-21T06:09:32;34.38;;;14.32;;
52015;SDS011;38032;53.326;6.472;2023-11-21T06:11:58;32.92;;;14.45;;
52015;SDS011;38032;53.326;6.472;2023-11-21T06:14:23;37.70;;;15.48;;
52015;SDS011;38032;53.326;6.472;2023-11-21T06:16:49;34.65;;;15.25;;
52015;SDS011;38032;53.326;6.472;2023-11-21T06:19:17;33.78;;;14.55;;
52015;SDS011;38032;53.326;6.472;2023-11-21T06:21:46;29.52;;;13.95;;
52015;SDS011;38032;53.326;6.472;2023-11-21T06:24:12;36.35;;;15.40;;
52015;SDS011;38032;53.326;6.472;2023-11-21T06:26:40;28.45;;;14.10;;
52015;SDS011;38032;53.326;6.472;2023-11-21T06:29:06;24.98;;;13.77;;
52015;SDS011;38032;53.326;6.472;2023-11-21T06:31:32;32.90;;;14.82;;
52015;SDS011;38032;53.326;6.472;2023-11-21T06:33:58;25.63;;;13.02;;
52015;SDS011;38032;53.326;6.472;2023-11-21T06:36:25;23.52;;;12.75;;
52015;SDS011;38032;53.326;6.472;2023-11-21T06:38:51;25.45;;;13.73;;
52015;SDS011;38032;53.326;6.472;2023-11-21T06:41:17;26.98;;;13.68;;
52015;SDS011;38032;53.326;6.472;2023-11-21T06:43:43;23.88;;;12.57;;
52015;SDS011;38032;53.326;6.472;2023-11-21T06:46:12;22.15;;;12.93;;
52015;SDS011;38032;53.326;6.472;2023-11-21T06:48:40;23.58;;;12.70;;
52015;SDS011;38032;53.326;6.472;2023-11-21T06:51:07;21.38;;;11.90;;
52015;SDS011;38032;53.326;6.472;2023-11-21T06:53:33;24.58;;;12.23;;
52015;SDS011;38032;53.326;6.472;2023-11-21T06:56:00;22.65;;;12.68;;
52015;SDS011;38032;53.326;6.472;2023-11-21T06:58:26;23.05;;;12.30;;
52015;SDS011;38032;53.326;6.472;2023-11-21T07:00:52;23.73;;;12.88;;
52015;SDS011;38032;53.326;6.472;2023-11-21T07:03:18;26.40;;;13.20;;
52015;SDS011;38032;53.326;6.472;2023-11-21T07:05:44;29.85;;;14.27;;
52015;SDS011;38032;53.326;6.472;2023-11-21T07:08:10;25.92;;;14.15;;
52015;SDS011;38032;53.326;6.472;2023-11-21T07:10:37;25.02;;;14.32;;
52015;SDS011;38032;53.326;6.472;2023-11-21T07:13:03;27.10;;;14.98;;
52015;SDS011;38032;53.326;6.472;2023-11-21T07:15:29;27.48;;;14.48;;
52015;SDS011;38032;53.326;6.472;2023-11-21T07:17:55;26.50;;;14.00;;
52015;SDS011;38032;53.326;6.472;2023-11-21T07:20:21;26.58;;;14.63;;
52015;SDS011;38032;53.326;6.472;2023-11-21T07:22:47;24.02;;;13.63;;
52015;SDS011;38032;53.326;6.472;2023-11-21T07:25:13;26.65;;;14.27;;
52015;SDS011;38032;53.326;6.472;2023-11-21T07:27:38;26.35;;;13.77;;
52015;SDS011;38032;53.326;6.472;2023-11-21T07:30:04;26.10;;;13.15;;
52015;SDS011;38032;53.326;6.472;2023-11-21T07:32:32;24.38;;;13.40;;
52015;SDS011;38032;53.326;6.472;2023-11-21T07:34:59;23.02;;;13.38;;
52015;SDS011;38032;53.326;6.472;2023-11-21T07:37:26;24.40;;;13.85;;
52015;SDS011;38032;53.326;6.472;2023-11-21T07:39:57;24.52;;;14.27;;
52015;SDS011;38032;53.326;6.472;2023-11-21T07:42:24;25.80;;;14.57;;
52015;SDS011;38032;53.326;6.472;2023-11-21T07:44:51;28.17;;;16.15;;
52015;SDS011;38032;53.326;6.472;2023-11-21T07:47:17;26.95;;;15.48;;
52015;SDS011;38032;53.326;6.472;2023-11-21T07:49:43;24.80;;;14.63;;
52015;SDS011;38032;53.326;6.472;2023-11-21T07:52:10;21.00;;;13.20;;
52015;SDS011;38032;53.326;6.472;2023-11-21T07:54:36;21.13;;;14.32;;
52015;SDS011;38032;53.326;6.472;2023-11-21T07:57:01;22.52;;;12.88;;
52015;SDS011;38032;53.326;6.472;2023-11-21T07:59:29;22.15;;;13.57;;
52015;SDS011;38032;53.326;6.472;2023-11-21T08:01:55;25.20;;;15.30;;
52015;SDS011;38032;53.326;6.472;2023-11-21T08:04:21;20.42;;;12.80;;
52015;SDS011;38032;53.326;6.472;2023-11-21T08:06:47;24.00;;;14.50;;
52015;SDS011;38032;53.326;6.472;2023-11-21T08:09:13;21.15;;;13.18;;
52015;SDS011;38032;53.326;6.472;2023-11-21T08:11:40;20.35;;;13.95;;
52015;SDS011;38032;53.326;6.472;2023-11-21T08:14:07;18.55;;;12.90;;
52015;SDS011;38032;53.326;6.472;2023-11-21T08:16:33;21.42;;;13.77;;
52015;SDS011;38032;53.326;6.472;2023-11-21T08:18:58;19.38;;;12.75;;
52015;SDS011;38032;53.326;6.472;2023-11-21T08:21:24;20.38;;;12.95;;
52015;SDS011;38032;53.326;6.472;2023-11-21T08:23:50;20.05;;;13.43;;
52015;SDS011;38032;53.326;6.472;2023-11-21T08:26:19;17.75;;;12.05;;
52015;SDS011;38032;53.326;6.472;2023-11-21T08:28:46;17.25;;;12.40;;
52015;SDS011;38032;53.326;6.472;2023-11-21T08:31:12;16.67;;;11.50;;
52015;SDS011;38032;53.326;6.472;2023-11-21T08:33:38;18.88;;;12.70;;
52015;SDS011;38032;53.326;6.472;2023-11-21T08:36:10;17.88;;;12.00;;
52015;SDS011;38032;53.326;6.472;2023-11-21T08:38:37;16.35;;;12.00;;
52015;SDS011;38032;53.326;6.472;2023-11-21T08:41:04;17.50;;;12.38;;
52015;SDS011;38032;53.326;6.472;2023-11-21T08:43:34;18.30;;;12.07;;
52015;SDS011;38032;53.326;6.472;2023-11-21T08:46:00;21.60;;;12.20;;
52015;SDS011;38032;53.326;6.472;2023-11-21T08:48:26;19.23;;;13.25;;
52015;SDS011;38032;53.326;6.472;2023-11-21T08:50:54;18.38;;;12.23;;
52015;SDS011;38032;53.326;6.472;2023-11-21T08:53:20;18.25;;;12.55;;
52015;SDS011;38032;53.326;6.472;2023-11-21T08:55:46;19.13;;;12.30;;
52015;SDS011;38032;53.326;6.472;2023-11-21T08:58:13;16.63;;;11.75;;
52015;SDS011;38032;53.326;6.472;2023-11-21T09:00:39;18.15;;;12.40;;
52015;SDS011;38032;53.326;6.472;2023-11-21T09:03:05;19.17;;;12.60;;
52015;SDS011;38032;53.326;6.472;2023-11-21T09:05:34;18.27;;;12.98;;
52015;SDS011;38032;53.326;6.472;2023-11-21T09:08:03;20.65;;;13.48;;
52015;SDS011;38032;53.326;6.472;2023-11-21T09:10:29;20.85;;;13.77;;
52015;SDS011;38032;53.326;6.472;2023-11-21T09:12:55;21.45;;;13.95;;
52015;SDS011;38032;53.326;6.472;2023-11-21T09:15:21;19.95;;;13.27;;
52015;SDS011;38032;53.326;6.472;2023-11-21T09:17:47;20.30;;;13.52;;
52015;SDS011;38032;53.326;6.472;2023-11-21T09:20:12;21.00;;;12.52;;
52015;SDS011;38032;53.326;6.472;2023-11-21T09:22:40;21.02;;;13.52;;
52015;SDS011;38032;53.326;6.472;2023-11-21T09:25:06;16.92;;;12.48;;
52015;SDS011;38032;53.326;6.472;2023-11-21T09:27:33;16.73;;;12.10;;
52015;SDS011;38032;53.326;6.472;2023-11-21T09:30:01;18.52;;;11.90;;
52015;SDS011;38032;53.326;6.472;2023-11-21T09:32:27;17.67;;;11.50;;
52015;SDS011;38032;53.326;6.472;2023-11-21T09:34:52;14.98;;;10.32;;
52015;SDS011;38032;53.326;6.472;2023-11-21T09:37:20;13.90;;;9.85;;
52015;SDS011;38032;53.326;6.472;2023-11-21T09:39:46;14.52;;;9.82;;
52015;SDS011;38032;53.326;6.472;2023-11-21T09:44:45;12.32;;;8.68;;
52015;SDS011;38032;53.326;6.472;2023-11-21T09:47:24;13.73;;;8.73;;
52015;SDS011;38032;53.326;6.472;2023-11-21T09:49:49;10.68;;;7.75;;
52015;SDS011;38032;53.326;6.472;2023-11-21T09:52:22;10.30;;;7.70;;
52015;SDS011;38032;53.326;6.472;2023-11-21T09:54:50;9.65;;;6.80;;
52015;SDS011;38032;53.326;6.472;2023-11-21T09:57:19;12.27;;;7.70;;
52015;SDS011;38032;53.326;6.472;2023-11-21T09:59:47;11.00;;;7.18;;
52015;SDS011;38032;53.326;6.472;2023-11-21T10:02:19;10.27;;;7.15;;
52015;SDS011;38032;53.326;6.472;2023-11-21T10:04:47;9.88;;;6.80;;
52015;SDS011;38032;53.326;6.472;2023-11-21T10:07:13;9.43;;;6.88;;
52015;SDS011;38032;53.326;6.472;2023-11-21T10:09:44;10.23;;;7.05;;
52015;SDS011;38032;53.326;6.472;2023-11-21T10:12:11;10.32;;;7.10;;
52015;SDS011;38032;53.326;6.472;2023-11-21T10:14:40;8.55;;;6.28;;
52015;SDS011;38032;53.326;6.472;2023-11-21T10:17:08;9.60;;;6.80;;
52015;SDS011;38032;53.326;6.472;2023-11-21T10:19:37;10.25;;;6.32;;
52015;SDS011;38032;53.326;6.472;2023-11-21T10:22:04;9.25;;;6.45;;
52015;SDS011;38032;53.326;6.472;2023-11-21T10:24:32;9.63;;;6.53;;
52015;SDS011;38032;53.326;6.472;2023-11-21T10:26:58;9.13;;;6.38;;
52015;SDS011;38032;53.326;6.472;2023-11-21T10:29:29;10.45;;;5.80;;
52015;SDS011;38032;53.326;6.472;2023-11-21T10:31:55;8.25;;;6.00;;
52015;SDS011;38032;53.326;6.472;2023-11-21T10:34:23;7.15;;;5.38;;
52015;SDS011;38032;53.326;6.472;2023-11-21T10:36:49;8.32;;;6.03;;
52015;SDS011;38032;53.326;6.472;2023-11-21T10:39:19;8.32;;;5.65;;
52015;SDS011;38032;53.326;6.472;2023-11-21T10:41:46;9.35;;;5.97;;
52015;SDS011;38032;53.326;6.472;2023-11-21T10:44:13;8.63;;;6.30;;
52015;SDS011;38032;53.326;6.472;2023-11-21T10:46:45;10.25;;;6.20;;
52015;SDS011;38032;53.326;6.472;2023-11-21T10:49:16;8.32;;;5.70;;
52015;SDS011;38032;53.326;6.472;2023-11-21T10:51:44;10.57;;;5.97;;
52015;SDS011;38032;53.326;6.472;2023-11-21T10:54:10;7.90;;;5.50;;
52015;SDS011;38032;53.326;6.472;2023-11-21T10:56:37;7.65;;;5.30;;
52015;SDS011;38032;53.326;6.472;2023-11-21T10:59:08;8.57;;;5.82;;
52015;SDS011;38032;53.326;6.472;2023-11-21T11:01:40;8.30;;;5.63;;
52015;SDS011;38032;53.326;6.472;2023-11-21T11:04:09;7.35;;;5.43;;
52015;SDS011;38032;53.326;6.472;2023-11-21T11:06:43;8.48;;;5.40;;
52015;SDS011;38032;53.326;6.472;2023-11-21T11:09:12;8.68;;;5.70;;
52015;SDS011;38032;53.326;6.472;2023-11-21T11:11:40;7.63;;;5.35;;
52015;SDS011;38032;53.326;6.472;2023-11-21T11:14:07;7.88;;;5.75;;
52015;SDS011;38032;53.326;6.472;2023-11-21T11:16:36;7.60;;;5.53;;
52015;SDS011;38032;53.326;6.472;2023-11-21T11:19:05;7.95;;;5.40;;
52015;SDS011;38032;53.326;6.472;2023-11-21T11:21:34;8.57;;;5.43;;
52015;SDS011;38032;53.326;6.472;2023-11-21T11:24:13;8.85;;;5.93;;
52015;SDS011;38032;53.326;6.472;2023-11-21T11:29:31;8.13;;;5.72;;
52015;SDS011;38032;53.326;6.472;2023-11-21T11:32:10;9.95;;;6.10;;
52015;SDS011;38032;53.326;6.472;2023-11-21T11:34:50;7.97;;;5.72;;
52015;SDS011;38032;53.326;6.472;2023-11-21T11:37:26;8.25;;;5.75;;
52015;SDS011;38032;53.326;6.472;2023-11-21T11:39:52;8.55;;;5.88;;
52015;SDS011;38032;53.326;6.472;2023-11-21T11:42:19;7.55;;;5.60;;
52015;SDS011;38032;53.326;6.472;2023-11-21T11:44:48;8.80;;;5.68;;
52015;SDS011;38032;53.326;6.472;2023-11-21T11:47:20;7.05;;;5.43;;
52015;SDS011;38032;53.326;6.472;2023-11-21T11:49:56;8.55;;;5.97;;
52015;SDS011;38032;53.326;6.472;2023-11-21T11:52:42;8.85;;;5.90;;
52015;SDS011;38032;53.326;6.472;2023-11-21T11:55:10;7.20;;;5.20;;
52015;SDS011;38032;53.326;6.472;2023-11-21T11:57:38;8.63;;;5.57;;
52015;SDS011;38032;53.326;6.472;2023-11-21T12:00:13;8.02;;;5.90;;
52015;SDS011;38032;53.326;6.472;2023-11-21T12:02:42;9.60;;;6.07;;
52015;SDS011;38032;53.326;6.472;2023-11-21T12:05:11;9.10;;;6.35;;
52015;SDS011;38032;53.326;6.472;2023-11-21T12:07:45;10.98;;;6.70;;
52015;SDS011;38032;53.326;6.472;2023-11-21T12:10:20;8.52;;;6.07;;
52015;SDS011;38032;53.326;6.472;2023-11-21T12:12:50;7.25;;;5.32;;
52015;SDS011;38032;53.326;6.472;2023-11-21T12:15:17;9.27;;;6.10;;
52015;SDS011;38032;53.326;6.472;2023-11-21T12:17:44;9.82;;;6.25;;
52015;SDS011;38032;53.326;6.472;2023-11-21T12:20:12;9.18;;;6.28;;
52015;SDS011;38032;53.326;6.472;2023-11-21T12:22:42;9.52;;;6.75;;
52015;SDS011;38032;53.326;6.472;2023-11-21T12:25:09;8.90;;;5.97;;
52015;SDS011;38032;53.326;6.472;2023-11-21T12:27:41;11.48;;;5.88;;
52015;SDS011;38032;53.326;6.472;2023-11-21T12:30:07;8.90;;;5.78;;
52015;SDS011;38032;53.326;6.472;2023-11-21T12:32:39;11.60;;;6.00;;
52015;SDS011;38032;53.326;6.472;2023-11-21T12:35:06;9.75;;;6.60;;
52015;SDS011;38032;53.326;6.472;2023-11-21T12:37:35;9.50;;;6.35;;
52015;SDS011;38032;53.326;6.472;2023-11-21T12:40:03;11.85;;;6.97;;
52015;SDS011;38032;53.326;6.472;2023-11-21T12:42:30;9.05;;;6.80;;
52015;SDS011;38032;53.326;6.472;2023-11-21T12:45:12;9.55;;;7.00;;
52015;SDS011;38032;53.326;6.472;2023-11-21T12:47:47;8.85;;;6.55;;
52015;SDS011;38032;53.326;6.472;2023-11-21T12:50:15;9.98;;;6.75;;
52015;SDS011;38032;53.326;6.472;2023-11-21T12:52:48;11.35;;;6.78;;
52015;SDS011;38032;53.326;6.472;2023-11-21T12:55:17;9.63;;;6.47;;
52015;SDS011;38032;53.326;6.472;2023-11-21T12:57:47;10.73;;;6.80;;
52015;SDS011;38032;53.326;6.472;2023-11-21T13:00:16;9.80;;;6.40;;
52015;SDS011;38032;53.326;6.472;2023-11-21T13:02:52;9.00;;;5.78;;
52015;SDS011;38032;53.326;6.472;2023-11-21T13:05:26;12.85;;;6.25;;
52015;SDS011;38032;53.326;6.472;2023-11-21T13:07:54;9.77;;;5.53;;
52015;SDS011;38032;53.326;6.472;2023-11-21T13:10:24;10.88;;;6.15;;
52015;SDS011;38032;53.326;6.472;2023-11-21T13:12:54;11.20;;;6.20;;
52015;SDS011;38032;53.326;6.472;2023-11-21T13:15:23;8.75;;;5.30;;
52015;SDS011;38032;53.326;6.472;2023-11-21T13:17:50;6.88;;;4.90;;
52015;SDS011;38032;53.326;6.472;2023-11-21T13:20:16;7.63;;;5.82;;
52015;SDS011;38032;53.326;6.472;2023-11-21T13:22:46;10.52;;;5.43;;
52015;SDS011;38032;53.326;6.472;2023-11-21T13:25:15;7.05;;;4.85;;
52015;SDS011;38032;53.326;6.472;2023-11-21T13:27:43;8.02;;;4.82;;
52015;SDS011;38032;53.326;6.472;2023-11-21T13:30:11;8.25;;;4.78;;
52015;SDS011;38032;53.326;6.472;2023-11-21T13:32:41;8.68;;;4.30;;
52015;SDS011;38032;53.326;6.472;2023-11-21T13:35:11;6.45;;;4.30;;
52015;SDS011;38032;53.326;6.472;2023-11-21T13:37:55;6.95;;;4.38;;
52015;SDS011;38032;53.326;6.472;2023-11-21T13:40:25;8.07;;;4.13;;
52015;SDS011;38032;53.326;6.472;2023-11-21T13:42:53;10.07;;;5.03;;
52015;SDS011;38032;53.326;6.472;2023-11-21T13:45:21;8.15;;;4.25;;
52015;SDS011;38032;53.326;6.472;2023-11-21T13:47:48;7.22;;;4.47;;
52015;SDS011;38032;53.326;6.472;2023-11-21T13:50:17;8.10;;;3.90;;
52015;SDS011;38032;53.326;6.472;2023-11-21T13:52:48;6.75;;;4.20;;
52015;SDS011;38032;53.326;6.472;2023-11-21T13:55:17;7.78;;;4.13;;
52015;SDS011;38032;53.326;6.472;2023-11-21T13:57:43;6.15;;;4.28;;
52015;SDS011;38032;53.326;6.472;2023-11-21T14:00:12;8.32;;;4.70;;
52015;SDS011;38032;53.326;6.472;2023-11-21T14:02:58;8.48;;;4.30;;
52015;SDS011;38032;53.326;6.472;2023-11-21T14:05:26;6.38;;;4.28;;
52015;SDS011;38032;53.326;6.472;2023-11-21T14:07:55;7.18;;;4.25;;
52015;SDS011;38032;53.326;6.472;2023-11-21T14:10:27;7.53;;;4.00;;
52015;SDS011;38032;53.326;6.472;2023-11-21T14:15:28;6.75;;;3.75;;
52015;SDS011;38032;53.326;6.472;2023-11-21T14:17:54;6.63;;;4.05;;
52015;SDS011;38032;53.326;6.472;2023-11-21T14:20:20;7.18;;;4.00;;
52015;SDS011;38032;53.326;6.472;2023-11-21T14:22:46;6.53;;;3.95;;
52015;SDS011;38032;53.326;6.472;2023-11-21T14:25:12;8.25;;;4.32;;
52015;SDS011;38032;53.326;6.472;2023-11-21T14:27:39;6.43;;;4.00;;
52015;SDS011;38032;53.326;6.472;2023-11-21T14:30:05;5.78;;;3.65;;
52015;SDS011;38032;53.326;6.472;2023-11-21T14:32:31;6.18;;;3.65;;
52015;SDS011;38032;53.326;6.472;2023-11-21T14:34:57;7.15;;;3.83;;
52015;SDS011;38032;53.326;6.472;2023-11-21T14:37:23;7.40;;;4.18;;
52015;SDS011;38032;53.326;6.472;2023-11-21T14:39:49;8.38;;;4.07;;
52015;SDS011;38032;53.326;6.472;2023-11-21T14:42:15;7.05;;;4.18;;